Fascination — C6FM9 — position and weather

sailwx.info

Track history (hours):
 
Tides and Currents Weather Stations Pressure Air Temp Water Temp Dewpoint Dewpoint Depression Visibility Wind Speed Wind Dir Waves Ship Positions

Fascination

Operator: Carnival Cruise Lines

Last reported at 2019-Feb-23 17:29 UTC. Time now 2019-Feb-23 17:48 UTC.
Position N 18°01' W 063°03'.

Type: Ship. MMSI: 309682000.

Date/timePositionNaut miles runAvg speedWind from/ knotsBaromVisibWave heightAir tempDewpointWater temp
2019-Feb-23 17:29N 18°01' W 063°03'0 0.0
2019-Feb-23 16:59N 18°01' W 063°03'0 0.0
2019-Feb-23 16:29N 18°01' W 063°03'0 0.0
2019-Feb-23 15:53N 18°01' W 063°03'0 0.0
2019-Feb-23 15:24N 18°01' W 063°03'0 0.0
2019-Feb-23 15:00N 18°01' W 063°03'0 0.0
2019-Feb-23 14:26N 18°01' W 063°03'0 0.0
2019-Feb-23 13:53N 18°01' W 063°03'0 0.0
2019-Feb-23 13:30N 18°01' W 063°03'0 0.0
2019-Feb-23 12:41N 18°01' W 063°03'0 0.0
2019-Feb-23 12:29N 18°01' W 063°03'0 0.0
2019-Feb-23 11:58N 18°01' W 063°03'0 0.0
2019-Feb-23 11:29N 18°01' W 063°03'0 0.3
2019-Feb-23 10:25N 18°00' W 063°03'5 7.3
2019-Feb-23 09:47N 18°00' W 063°08'4 9.1
2019-Feb-23 09:22N 18°01' W 063°12'4 9.2
2019-Feb-23 08:54N 18°01' W 063°16'6 9.4
2019-Feb-23 08:15N 18°01' W 063°23'310.3
2019-Feb-23 07:55N 18°02' W 063°26'510.2
2019-Feb-23 07:23N 18°05' W 063°31'10 7.4
2019-Feb-23 06:00N 18°06' W 063°42'10 8.2 090 / 251018.010.8 25.022.024.0
2019-Feb-23 04:49N 17°57' W 063°44'8 9.4
2019-Feb-23 04:00N 17°53' W 063°36'1010.6
2019-Feb-23 03:06N 17°53' W 063°26'549.4
2019-Feb-23 03:00N 17°48' W 063°24'414.8 080 / 151020.010.8 25.022.022.0
2019-Feb-23 02:43N 17°52' W 063°22'211.0
2019-Feb-23 02:29N 17°50' W 063°20'611.9
2019-Feb-23 01:59N 17°47' W 063°14'611.6
2019-Feb-23 01:26N 17°44' W 063°09'511.2
2019-Feb-23 00:57N 17°39' W 063°07'511.2
2019-Feb-23 00:30N 17°34' W 063°07'510.0
2019-Feb-23 00:00N 17°29' W 063°06'510.3
2019-Feb-22 23:30N 17°25' W 063°03'711.0
2019-Feb-22 22:53N 17°20' W 062°58'410.8
2019-Feb-22 22:30N 17°17' W 062°55'910.9
2019-Feb-22 21:41N 17°16' W 062°46'2 0.2
2019-Feb-22 10:57N 17°15' W 062°43'510.0
2019-Feb-22 10:29N 17°10' W 062°43'11117.1
2019-Feb-22 04:00N 15°30' W 061°54'5215.0 080 / 301017.010.8 25.023.523.0
2019-Feb-22 00:30N 14°43' W 061°31'916.9
2019-Feb-22 00:00N 14°35' W 061°28'817.0
2019-Feb-21 23:30N 14°27' W 061°24'816.9
2019-Feb-21 23:00N 14°20' W 061°20'917.3
2019-Feb-21 22:29N 14°13' W 061°13'18 8.9
2019-Feb-21 20:29N 14°01' W 060°60'0 0.0
2019-Feb-21 17:06N 14°01' W 060°60'0 0.0
2019-Feb-21 16:54N 14°01' W 060°60'0 0.0
2019-Feb-21 13:19N 14°01' W 060°60'0 0.0
2019-Feb-21 12:58N 14°01' W 060°60'0 0.0
2019-Feb-21 12:01N 14°01' W 060°60'0 0.0
2019-Feb-21 11:52N 14°01' W 060°60'0 0.0
2019-Feb-21 11:30N 14°01' W 060°60'1 1.2
2019-Feb-21 11:00N 14°01' W 061°00'4 7.1
2019-Feb-21 10:30N 14°02' W 061°04'33 7.3
2019-Feb-21 06:00N 13°30' W 061°12'15 9.4 060 / 131016.010.8 25.022.024.0
2019-Feb-21 04:22N 13°30' W 060°56'1026.7
2019-Feb-21 04:00N 13°24' W 060°48'49 2.0 080 / 221014.010.8 25.022.022.0
2019-Feb-20 03:48N 14°12' W 060°39'911.7
2019-Feb-20 03:00N 14°13' W 060°48'149.7
2019-Feb-20 03:00N 14°12' W 060°48'612.7 070 / 251014.010.8 25.022.022.0
2019-Feb-20 02:30N 14°13' W 060°54'611.5
2019-Feb-20 02:00N 14°13' W 061°00'611.5
2019-Feb-20 01:30N 14°13' W 061°06'611.7
2019-Feb-20 01:00N 14°14' W 061°12'611.2
2019-Feb-20 00:30N 14°17' W 061°17'812.2
2019-Feb-19 23:50N 14°23' W 061°22'512.9
2019-Feb-19 23:25N 14°27' W 061°26'512.8
2019-Feb-19 23:00N 14°31' W 061°29'712.9
2019-Feb-19 22:30N 14°36' W 061°34'11911.3
2019-Feb-19 12:00N 16°06' W 062°54'5714.0 090 / 281015.010.8 26.021.522.0
2019-Feb-19 07:55N 16°50' W 063°31'4812.3
2019-Feb-19 04:00N 17°30' W 064°00'6011.5 090 / 281017.010.8 25.022.022.0
2019-Feb-18 22:48N 18°10' W 064°47'411.9
2019-Feb-18 22:30N 18°11' W 064°50'611.4
2019-Feb-18 22:00N 18°15' W 064°55'3 0.3
2019-Feb-18 10:15N 18°18' W 064°55'2 8.5
2019-Feb-18 09:59N 18°17' W 064°57'6 0.2
2019-Feb-17 04:07N 18°11' W 064°58'216.9
2019-Feb-17 03:59N 18°10' W 064°56'1414.0
2019-Feb-17 03:00N 18°06' W 064°42'6717.5 110 / 121015.010.8 25.022.022.0
2019-Feb-16 23:10N 18°02' W 063°32'316.4
2019-Feb-16 23:00N 18°02' W 063°29'816.2
2019-Feb-16 22:29N 18°01' W 063°20'916.3
2019-Feb-16 21:56N 18°01' W 063°11'713.0
2019-Feb-16 21:22N 18°00' W 063°03'0 0.4
2019-Feb-16 20:59N 18°01' W 063°03'0 0.0
2019-Feb-16 20:26N 18°01' W 063°03'0 0.0
2019-Feb-16 19:50N 18°01' W 063°03'0 0.0
2019-Feb-16 19:17N 18°01' W 063°03'0 0.0
2019-Feb-16 18:59N 18°01' W 063°03'0 0.0
2019-Feb-16 18:10N 18°01' W 063°03'0 0.0
2019-Feb-16 17:55N 18°01' W 063°03'0 0.0
2019-Feb-16 17:16N 18°01' W 063°03'0 0.0
2019-Feb-16 16:49N 18°01' W 063°03'0 0.0
2019-Feb-16 16:27N 18°01' W 063°03'0 0.0
2019-Feb-16 15:54N 18°01' W 063°03'0 0.0
2019-Feb-16 15:21N 18°01' W 063°03'0 0.0
2019-Feb-16 15:00N 18°01' W 063°03'0 0.0
2019-Feb-16 14:00N 18°01' W 063°03'0 0.0
2019-Feb-16 13:23N 18°01' W 063°03'0 0.0
2019-Feb-16 12:53N 18°01' W 063°03'0 0.0
2019-Feb-16 12:20N 18°01' W 063°03'0 0.0
2019-Feb-16 11:40N 18°01' W 063°03'0 0.0
2019-Feb-16 11:10N 18°01' W 063°03'0 0.0
2019-Feb-16 10:55N 18°01' W 063°03'0 0.7
2019-Feb-16 10:23N 18°00' W 063°03'3 6.5
2019-Feb-16 09:57N 18°00' W 063°06'610.0
2019-Feb-16 09:21N 18°01' W 063°12'410.4
2019-Feb-16 08:59N 18°01' W 063°16'510.6
2019-Feb-16 08:30N 18°01' W 063°22'611.3
2019-Feb-16 07:57N 18°03' W 063°28'511.6
2019-Feb-16 07:29N 18°06' W 063°33'611.5
2019-Feb-16 06:56N 18°10' W 063°38'5 5.5
2019-Feb-16 06:00N 18°06' W 063°42'5 6.4 150 / 201013.010.8 25.023.524.0
2019-Feb-16 05:13N 18°02' W 063°45'210.1
2019-Feb-16 05:00N 18°00' W 063°44'510.1
2019-Feb-16 04:30N 17°55' W 063°43'5 9.3
2019-Feb-16 03:57N 17°53' W 063°38'511.2
2019-Feb-16 03:29N 17°53' W 063°32'611.8
2019-Feb-16 02:58N 17°52' W 063°26'611.2
2019-Feb-16 02:25N 17°50' W 063°20'511.4
2019-Feb-16 02:00N 17°48' W 063°16'2147.7
2019-Feb-16 02:00N 17°48' W 063°18'815.9 130 / 101012.010.8 25.023.526.0
2019-Feb-16 01:30N 17°45' W 063°10'610.5
2019-Feb-16 00:56N 17°40' W 063°07'511.7
2019-Feb-16 00:30N 17°35' W 063°07'711.4
2019-Feb-15 23:56N 17°28' W 063°06'610.5
2019-Feb-15 23:21N 17°23' W 063°02'411.0
2019-Feb-15 22:58N 17°21' W 062°59'511.2
2019-Feb-15 22:30N 17°17' W 062°55'910.7
2019-Feb-15 21:38N 17°16' W 062°45'2 0.2
2019-Feb-15 11:17N 17°17' W 062°43'2 6.7
2019-Feb-15 10:56N 17°14' W 062°43'410.6
2019-Feb-15 10:30N 17°10' W 062°43'7616.9
2019-Feb-15 06:00N 16°00' W 062°12'4816.0 140 / 201013.010.8 25.022.024.0
2019-Feb-15 03:00N 15°18' W 061°48'6917.4 130 / 251015.010.8 25.022.021.0
2019-Feb-14 23:02N 14°16' W 061°16'217.0
2019-Feb-14 22:55N 14°15' W 061°15'717.1
2019-Feb-14 22:30N 14°10' W 061°10'816.8
2019-Feb-14 22:00N 14°04' W 061°04'5 9.7
2019-Feb-14 21:31N 14°01' W 060°60'0 0.0
2019-Feb-14 21:00N 14°01' W 060°60'0 0.0
2019-Feb-14 20:30N 14°01' W 060°60'0 0.0
2019-Feb-14 19:51N 14°01' W 060°60'0 0.0
2019-Feb-14 19:30N 14°01' W 060°60'0 0.0
2019-Feb-14 17:10N 14°01' W 060°60'0 0.0
2019-Feb-14 16:58N 14°01' W 060°60'0 0.0
2019-Feb-14 16:28N 14°01' W 060°60'0 0.0
2019-Feb-14 15:58N 14°01' W 060°60'0 0.0
2019-Feb-14 15:28N 14°01' W 060°60'0 0.0
2019-Feb-14 14:58N 14°01' W 060°60'0 0.0
2019-Feb-14 14:27N 14°01' W 060°60'0 0.0
2019-Feb-14 13:57N 14°01' W 060°60'0 0.0
2019-Feb-14 13:30N 14°01' W 060°60'0 0.0
2019-Feb-14 13:00N 14°01' W 060°60'0 0.0
2019-Feb-14 12:29N 14°01' W 060°60'0 0.0
2019-Feb-14 11:53N 14°01' W 060°60'0 0.2
2019-Feb-14 11:30N 14°01' W 060°60'1 2.8
2019-Feb-14 11:00N 14°02' W 061°01'3 5.8
2019-Feb-14 10:30N 14°02' W 061°04'510.4
2019-Feb-14 10:00N 13°60' W 061°09'611.2
2019-Feb-14 09:30N 13°57' W 061°14'611.1
2019-Feb-14 09:00N 13°55' W 061°19'20 5.9
2019-Feb-14 05:35N 13°35' W 061°13'  
Track history (hours):
 
Tides and Currents Weather Stations Pressure Air Temp Water Temp Dewpoint Dewpoint Depression Visibility Wind Speed Wind Dir Waves Ship Positions

Fascination

Operator: Carnival Cruise Lines

Last reported at 2019-Feb-23 17:29 UTC. Time now 2019-Feb-23 17:48 UTC.
Position N 18°01' W 063°03'.

Type: Ship. MMSI: 309682000.

Date/timePositionNaut miles runAvg speedWind from/ knotsBaromVisibWave heightAir tempDewpointWater temp
2019-Feb-23 17:29N 18°01' W 063°03'0 0.0
2019-Feb-23 16:59N 18°01' W 063°03'0 0.0
2019-Feb-23 16:29N 18°01' W 063°03'0 0.0
2019-Feb-23 15:53N 18°01' W 063°03'0 0.0
2019-Feb-23 15:24N 18°01' W 063°03'0 0.0
2019-Feb-23 15:00N 18°01' W 063°03'0 0.0
2019-Feb-23 14:26N 18°01' W 063°03'0 0.0
2019-Feb-23 13:53N 18°01' W 063°03'0 0.0
2019-Feb-23 13:30N 18°01' W 063°03'0 0.0
2019-Feb-23 12:41N 18°01' W 063°03'0 0.0
2019-Feb-23 12:29N 18°01' W 063°03'0 0.0
2019-Feb-23 11:58N 18°01' W 063°03'0 0.0
2019-Feb-23 11:29N 18°01' W 063°03'0 0.3
2019-Feb-23 10:25N 18°00' W 063°03'5 7.3
2019-Feb-23 09:47N 18°00' W 063°08'4 9.1
2019-Feb-23 09:22N 18°01' W 063°12'4 9.2
2019-Feb-23 08:54N 18°01' W 063°16'6 9.4
2019-Feb-23 08:15N 18°01' W 063°23'310.3
2019-Feb-23 07:55N 18°02' W 063°26'510.2
2019-Feb-23 07:23N 18°05' W 063°31'10 7.4
2019-Feb-23 06:00N 18°06' W 063°42'10 8.2 090 / 251018.010.8 25.022.024.0
2019-Feb-23 04:49N 17°57' W 063°44'8 9.4
2019-Feb-23 04:00N 17°53' W 063°36'1010.6
2019-Feb-23 03:06N 17°53' W 063°26'549.4
2019-Feb-23 03:00N 17°48' W 063°24'414.8 080 / 151020.010.8 25.022.022.0
2019-Feb-23 02:43N 17°52' W 063°22'211.0
2019-Feb-23 02:29N 17°50' W 063°20'611.9
2019-Feb-23 01:59N 17°47' W 063°14'611.6
2019-Feb-23 01:26N 17°44' W 063°09'511.2
2019-Feb-23 00:57N 17°39' W 063°07'511.2
2019-Feb-23 00:30N 17°34' W 063°07'510.0
2019-Feb-23 00:00N 17°29' W 063°06'510.3
2019-Feb-22 23:30N 17°25' W 063°03'711.0
2019-Feb-22 22:53N 17°20' W 062°58'410.8
2019-Feb-22 22:30N 17°17' W 062°55'910.9
2019-Feb-22 21:41N 17°16' W 062°46'2 0.2
2019-Feb-22 10:57N 17°15' W 062°43'510.0
2019-Feb-22 10:29N 17°10' W 062°43'11117.1
2019-Feb-22 04:00N 15°30' W 061°54'5215.0 080 / 301017.010.8 25.023.523.0
2019-Feb-22 00:30N 14°43' W 061°31'916.9
2019-Feb-22 00:00N 14°35' W 061°28'817.0
2019-Feb-21 23:30N 14°27' W 061°24'816.9
2019-Feb-21 23:00N 14°20' W 061°20'917.3
2019-Feb-21 22:29N 14°13' W 061°13'18 8.9
2019-Feb-21 20:29N 14°01' W 060°60'0 0.0
2019-Feb-21 17:06N 14°01' W 060°60'0 0.0
2019-Feb-21 16:54N 14°01' W 060°60'0 0.0
2019-Feb-21 13:19N 14°01' W 060°60'0 0.0
2019-Feb-21 12:58N 14°01' W 060°60'0 0.0
2019-Feb-21 12:01N 14°01' W 060°60'0 0.0
2019-Feb-21 11:52N 14°01' W 060°60'0 0.0
2019-Feb-21 11:30N 14°01' W 060°60'1 1.2
2019-Feb-21 11:00N 14°01' W 061°00'4 7.1
2019-Feb-21 10:30N 14°02' W 061°04'33 7.3
2019-Feb-21 06:00N 13°30' W 061°12'15 9.4 060 / 131016.010.8 25.022.024.0
2019-Feb-21 04:22N 13°30' W 060°56'1026.7
2019-Feb-21 04:00N 13°24' W 060°48'49 2.0 080 / 221014.010.8 25.022.022.0
2019-Feb-20 03:48N 14°12' W 060°39'911.7
2019-Feb-20 03:00N 14°13' W 060°48'149.7
2019-Feb-20 03:00N 14°12' W 060°48'612.7 070 / 251014.010.8 25.022.022.0
2019-Feb-20 02:30N 14°13' W 060°54'611.5
2019-Feb-20 02:00N 14°13' W 061°00'611.5
2019-Feb-20 01:30N 14°13' W 061°06'611.7
2019-Feb-20 01:00N 14°14' W 061°12'611.2
2019-Feb-20 00:30N 14°17' W 061°17'812.2
2019-Feb-19 23:50N 14°23' W 061°22'512.9
2019-Feb-19 23:25N 14°27' W 061°26'512.8
2019-Feb-19 23:00N 14°31' W 061°29'712.9
2019-Feb-19 22:30N 14°36' W 061°34'11911.3
2019-Feb-19 12:00N 16°06' W 062°54'5714.0 090 / 281015.010.8 26.021.522.0
2019-Feb-19 07:55N 16°50' W 063°31'4812.3
2019-Feb-19 04:00N 17°30' W 064°00'6011.5 090 / 281017.010.8 25.022.022.0
2019-Feb-18 22:48N 18°10' W 064°47'411.9
2019-Feb-18 22:30N 18°11' W 064°50'611.4
2019-Feb-18 22:00N 18°15' W 064°55'3 0.3
2019-Feb-18 10:15N 18°18' W 064°55'2 8.5
2019-Feb-18 09:59N 18°17' W 064°57'6 0.2
2019-Feb-17 04:07N 18°11' W 064°58'216.9
2019-Feb-17 03:59N 18°10' W 064°56'1414.0
2019-Feb-17 03:00N 18°06' W 064°42'6717.5 110 / 121015.010.8 25.022.022.0
2019-Feb-16 23:10N 18°02' W 063°32'316.4
2019-Feb-16 23:00N 18°02' W 063°29'816.2
2019-Feb-16 22:29N 18°01' W 063°20'916.3
2019-Feb-16 21:56N 18°01' W 063°11'713.0
2019-Feb-16 21:22N 18°00' W 063°03'0 0.4
2019-Feb-16 20:59N 18°01' W 063°03'0 0.0
2019-Feb-16 20:26N 18°01' W 063°03'0 0.0
2019-Feb-16 19:50N 18°01' W 063°03'0 0.0
2019-Feb-16 19:17N 18°01' W 063°03'0 0.0
2019-Feb-16 18:59N 18°01' W 063°03'0 0.0
2019-Feb-16 18:10N 18°01' W 063°03'0 0.0
2019-Feb-16 17:55N 18°01' W 063°03'0 0.0
2019-Feb-16 17:16N 18°01' W 063°03'0 0.0
2019-Feb-16 16:49N 18°01' W 063°03'0 0.0
2019-Feb-16 16:27N 18°01' W 063°03'0 0.0
2019-Feb-16 15:54N 18°01' W 063°03'0 0.0
2019-Feb-16 15:21N 18°01' W 063°03'0 0.0
2019-Feb-16 15:00N 18°01' W 063°03'0 0.0
2019-Feb-16 14:00N 18°01' W 063°03'0 0.0
2019-Feb-16 13:23N 18°01' W 063°03'0 0.0
2019-Feb-16 12:53N 18°01' W 063°03'0 0.0
2019-Feb-16 12:20N 18°01' W 063°03'0 0.0
2019-Feb-16 11:40N 18°01' W 063°03'0 0.0
2019-Feb-16 11:10N 18°01' W 063°03'0 0.0
2019-Feb-16 10:55N 18°01' W 063°03'0 0.7
2019-Feb-16 10:23N 18°00' W 063°03'3 6.5
2019-Feb-16 09:57N 18°00' W 063°06'610.0
2019-Feb-16 09:21N 18°01' W 063°12'410.4
2019-Feb-16 08:59N 18°01' W 063°16'510.6
2019-Feb-16 08:30N 18°01' W 063°22'611.3
2019-Feb-16 07:57N 18°03' W 063°28'511.6
2019-Feb-16 07:29N 18°06' W 063°33'611.5
2019-Feb-16 06:56N 18°10' W 063°38'5 5.5
2019-Feb-16 06:00N 18°06' W 063°42'5 6.4 150 / 201013.010.8 25.023.524.0
2019-Feb-16 05:13N 18°02' W 063°45'210.1
2019-Feb-16 05:00N 18°00' W 063°44'510.1
2019-Feb-16 04:30N 17°55' W 063°43'5 9.3
2019-Feb-16 03:57N 17°53' W 063°38'511.2
2019-Feb-16 03:29N 17°53' W 063°32'611.8
2019-Feb-16 02:58N 17°52' W 063°26'611.2
2019-Feb-16 02:25N 17°50' W 063°20'511.4
2019-Feb-16 02:00N 17°48' W 063°16'2147.7
2019-Feb-16 02:00N 17°48' W 063°18'815.9 130 / 101012.010.8 25.023.526.0
2019-Feb-16 01:30N 17°45' W 063°10'610.5
2019-Feb-16 00:56N 17°40' W 063°07'511.7
2019-Feb-16 00:30N 17°35' W 063°07'711.4
2019-Feb-15 23:56N 17°28' W 063°06'610.5
2019-Feb-15 23:21N 17°23' W 063°02'411.0
2019-Feb-15 22:58N 17°21' W 062°59'511.2
2019-Feb-15 22:30N 17°17' W 062°55'910.7
2019-Feb-15 21:38N 17°16' W 062°45'2 0.2
2019-Feb-15 11:17N 17°17' W 062°43'2 6.7
2019-Feb-15 10:56N 17°14' W 062°43'410.6
2019-Feb-15 10:30N 17°10' W 062°43'7616.9
2019-Feb-15 06:00N 16°00' W 062°12'4816.0 140 / 201013.010.8 25.022.024.0
2019-Feb-15 03:00N 15°18' W 061°48'6917.4 130 / 251015.010.8 25.022.021.0
2019-Feb-14 23:02N 14°16' W 061°16'217.0
2019-Feb-14 22:55N 14°15' W 061°15'717.1
2019-Feb-14 22:30N 14°10' W 061°10'816.8
2019-Feb-14 22:00N 14°04' W 061°04'5 9.7
2019-Feb-14 21:31N 14°01' W 060°60'0 0.0
2019-Feb-14 21:00N 14°01' W 060°60'0 0.0
2019-Feb-14 20:30N 14°01' W 060°60'0 0.0
2019-Feb-14 19:51N 14°01' W 060°60'0 0.0
2019-Feb-14 19:30N 14°01' W 060°60'0 0.0
2019-Feb-14 17:10N 14°01' W 060°60'0 0.0
2019-Feb-14 16:58N 14°01' W 060°60'0 0.0
2019-Feb-14 16:28N 14°01' W 060°60'0 0.0
2019-Feb-14 15:58N 14°01' W 060°60'0 0.0
2019-Feb-14 15:28N 14°01' W 060°60'0 0.0
2019-Feb-14 14:58N 14°01' W 060°60'0 0.0
2019-Feb-14 14:27N 14°01' W 060°60'0 0.0
2019-Feb-14 13:57N 14°01' W 060°60'0 0.0
2019-Feb-14 13:30N 14°01' W 060°60'0 0.0
2019-Feb-14 13:00N 14°01' W 060°60'0 0.0
2019-Feb-14 12:29N 14°01' W 060°60'0 0.0
2019-Feb-14 11:53N 14°01' W 060°60'0 0.2
2019-Feb-14 11:30N 14°01' W 060°60'1 2.8
2019-Feb-14 11:00N 14°02' W 061°01'3 5.8
2019-Feb-14 10:30N 14°02' W 061°04'510.4
2019-Feb-14 10:00N 13°60' W 061°09'611.2
2019-Feb-14 09:30N 13°57' W 061°14'611.1
2019-Feb-14 09:00N 13°55' W 061°19'20 5.9
2019-Feb-14 05:35N 13°35' W 061°13'  

Dump ship's entire track history